Time;durP1;ratioP1;P1;durP2;ratioP2;P2;SDS_P1;SDS_P2;PMS_P1;PMS_P2;Temp;Humidity;BMP_temperature;BMP_pressure;BME280_temperature;BME280_humidity;BME280_pressure;Samples;Min_cycle;Max_cycle;Signal;HPM_P1;HPM_P2
2021/09/21 00:01:17;;;;;;;0.10;0.10;;;;;;;13.69;58.32;102894.44;5013984;28;20089;-88
2021/09/21 00:03:43;;;;;;;0.10;0.10;;;;;;;13.67;57.75;102906.84;5020703;28;20075;-80
2021/09/21 00:06:10;;;;;;;0.00;0.00;;;;;;;13.64;58.21;102907.75;5000271;28;20461;-80
2021/09/21 00:08:37;;;;;;;0.10;0.10;;;;;;;13.64;57.99;102904.22;5013780;28;20079;-79
2021/09/21 00:11:05;;;;;;;0.10;0.10;;;;;;;13.64;58.55;102907.75;5014016;28;20128;-87
2021/09/21 00:13:32;;;;;;;0.00;0.00;;;;;;;13.65;59.16;102908.66;5014774;28;20030;-79
2021/09/21 00:16:01;;;;;;;0.00;0.00;;;;;;;13.68;58.37;102903.31;5014542;28;20080;-79
2021/09/21 00:18:28;;;;;;;0.00;0.00;;;;;;;13.65;58.25;102904.19;4997489;28;20037;-79
2021/09/21 00:20:56;;;;;;;0.10;0.10;;;;;;;13.66;58.17;102907.78;5014407;28;20485;-80
2021/09/21 00:23:22;;;;;;;0.00;0.00;;;;;;;13.65;58.63;102903.31;5014502;28;20040;-80
2021/09/21 00:25:49;;;;;;;0.10;0.10;;;;;;;13.65;57.46;102908.66;5014823;28;20066;-80
2021/09/21 00:28:15;;;;;;;0.10;0.10;;;;;;;13.65;57.36;102908.66;5013879;28;20073;-79
2021/09/21 00:30:47;;;;;;;0.10;0.10;;;;;;;13.65;59.39;102911.31;5014584;28;20034;-79
2021/09/21 00:33:18;;;;;;;0.10;0.10;;;;;;;13.65;58.12;102908.66;5014048;28;20033;-78
2021/09/21 00:35:46;;;;;;;0.05;0.05;;;;;;;13.64;58.46;102906.88;5014514;28;20433;-80
2021/09/21 00:38:15;;;;;;;0.00;0.00;;;;;;;13.62;58.97;102892.66;5014442;28;20062;-79
2021/09/21 00:40:43;;;;;;;0.10;0.10;;;;;;;13.58;58.82;102903.31;5014407;28;20064;-79
2021/09/21 00:43:10;;;;;;;0.10;0.10;;;;;;;13.56;58.89;102893.56;5014636;28;20025;-81
2021/09/21 00:45:38;;;;;;;0.00;0.00;;;;;;;13.55;58.70;102903.31;4997099;28;20109;-79
2021/09/21 00:48:05;;;;;;;0.10;0.10;;;;;;;13.51;57.82;102901.53;5014475;28;20121;-80
2021/09/21 00:50:32;;;;;;;0.20;0.20;;;;;;;13.50;58.53;102913.06;5014635;28;20152;-79
2021/09/21 00:53:00;;;;;;;0.10;0.10;;;;;;;13.49;58.73;102919.28;5014220;28;20029;-80
2021/09/21 00:55:28;;;;;;;0.10;0.10;;;;;;;13.47;58.95;102915.75;4997890;28;20058;-78
2021/09/21 00:57:54;;;;;;;0.10;0.10;;;;;;;13.47;58.88;102920.16;4996907;28;20038;-80
2021/09/21 01:00:22;;;;;;;0.10;0.10;;;;;;;13.44;58.64;102918.38;5014485;28;20033;-79
2021/09/21 01:02:48;;;;;;;0.10;0.10;;;;;;;13.42;58.73;102922.81;5013978;28;20531;-79
2021/09/21 01:05:16;;;;;;;0.10;0.10;;;;;;;13.41;59.04;102932.59;5013519;28;20033;-82
2021/09/21 01:07:43;;;;;;;0.35;0.35;;;;;;;13.40;59.33;102933.47;5013680;28;20161;-80
2021/09/21 01:10:13;;;;;;;0.08;0.08;;;;;;;13.39;59.05;102928.16;5014000;28;20034;-80
2021/09/21 01:12:40;;;;;;;0.00;0.00;;;;;;;13.37;59.39;102919.22;5019368;28;20396;-81
2021/09/21 01:15:07;;;;;;;0.08;0.08;;;;;;;13.37;58.99;102921.88;5013475;28;20385;-80
2021/09/21 01:17:36;;;;;;;0.10;0.10;;;;;;;13.34;59.26;102914.78;4995519;28;20072;-82
2021/09/21 01:20:06;;;;;;;0.10;0.10;;;;;;;13.33;58.48;102912.13;5013806;28;20058;-80
2021/09/21 01:22:33;;;;;;;0.10;0.10;;;;;;;13.31;58.50;102914.78;5006470;28;20030;-80
2021/09/21 01:24:59;;;;;;;0.00;0.00;;;;;;;13.30;59.03;102905.03;5013493;28;20045;-81
2021/09/21 01:27:26;;;;;;;0.10;0.10;;;;;;;13.30;58.69;102898.81;5013450;28;20112;-80
2021/09/21 01:29:52;;;;;;;0.10;0.10;;;;;;;13.29;58.37;102895.25;5013531;28;20117;-83
2021/09/21 01:32:21;;;;;;;0.10;0.10;;;;;;;13.29;59.19;102881.06;5013781;28;20377;-89
2021/09/21 01:34:48;;;;;;;0.10;0.10;;;;;;;13.25;58.89;102883.72;5014180;28;20500;-81
2021/09/21 01:37:14;;;;;;;0.10;0.10;;;;;;;13.24;58.48;102887.25;5013741;28;20033;-82
2021/09/21 01:39:42;;;;;;;0.10;0.10;;;;;;;13.22;58.67;102886.38;5013661;28;20477;-81
2021/09/21 01:42:09;;;;;;;0.10;0.10;;;;;;;13.19;59.35;102889.03;5013447;28;20121;-82
2021/09/21 01:44:36;;;;;;;0.17;0.17;;;;;;;13.19;59.67;102890.81;5013551;28;20034;-90
2021/09/21 01:47:04;;;;;;;0.00;0.00;;;;;;;13.18;59.30;102892.56;5014006;28;20030;-85
2021/09/21 01:49:54;;;;;;;0.10;0.10;;;;;;;13.20;59.31;102900.56;5028809;28;20053;-89
2021/09/21 01:52:26;;;;;;;0.10;0.10;;;;;;;13.17;59.42;102900.56;5013385;28;20081;-89
2021/09/21 02:00:25;;;;;;;0.00;0.00;;;;;;;13.13;58.73;102904.09;5061335;28;20040;-82
2021/09/21 02:02:51;;;;;;;0.10;0.10;;;;;;;13.11;59.33;102909.44;5068809;28;20029;-82
2021/09/21 02:05:18;;;;;;;0.40;0.40;;;;;;;13.10;59.18;102900.53;5072816;28;20055;-82
2021/09/21 02:07:44;;;;;;;0.10;0.10;;;;;;;13.10;59.76;102903.19;5067375;28;20029;-82
2021/09/21 02:10:11;;;;;;;0.10;0.10;;;;;;;13.10;59.16;102894.34;5063248;28;20021;-82
2021/09/21 02:12:37;;;;;;;0.10;0.10;;;;;;;13.09;59.47;102892.56;5060068;28;20029;-82
2021/09/21 02:15:05;;;;;;;0.10;0.10;;;;;;;13.07;59.28;102886.34;5069622;28;20032;-82
2021/09/21 02:17:31;;;;;;;0.00;0.00;;;;;;;13.05;59.30;102883.69;5057293;28;20420;-82
2021/09/21 02:19:58;;;;;;;0.50;0.50;;;;;;;13.04;59.54;102883.69;5060450;28;20033;-81
2021/09/21 02:22:24;;;;;;;0.10;0.10;;;;;;;13.03;59.49;102881.91;5047255;28;20029;-83
2021/09/21 02:24:50;;;;;;;0.00;0.00;;;;;;;13.04;59.83;102886.34;5068435;28;20024;-82
2021/09/21 02:27:17;;;;;;;0.10;0.10;;;;;;;13.02;59.55;102889.00;5056223;28;20373;-81
2021/09/21 02:29:43;;;;;;;0.10;0.10;;;;;;;13.02;59.71;102888.09;5066712;28;20025;-81
2021/09/21 02:32:09;;;;;;;0.10;0.10;;;;;;;13.02;60.18;102896.09;5063786;28;20144;-82
2021/09/21 02:34:36;;;;;;;0.00;0.00;;;;;;;12.99;60.00;102888.97;5063030;28;20379;-82
2021/09/21 02:37:02;;;;;;;0.10;0.10;;;;;;;12.98;59.47;102896.97;5072661;28;20111;-82
2021/09/21 02:39:29;;;;;;;0.10;0.10;;;;;;;12.97;59.35;102895.19;5059892;28;20107;-82
2021/09/21 02:41:55;;;;;;;0.10;0.10;;;;;;;12.95;59.55;102901.38;5068648;28;20037;-82
2021/09/21 02:44:22;;;;;;;0.10;0.10;;;;;;;12.94;59.66;102904.06;5067110;28;20036;-82
2021/09/21 02:46:50;;;;;;;0.10;0.10;;;;;;;12.93;59.39;102905.84;5061258;28;20025;-82
2021/09/21 02:49:17;;;;;;;0.00;0.00;;;;;;;12.94;59.66;102906.72;5072181;28;20097;-82
2021/09/21 02:51:43;;;;;;;0.10;0.10;;;;;;;12.91;59.52;102898.72;5062029;28;20052;-82
2021/09/21 02:54:10;;;;;;;0.10;0.10;;;;;;;12.87;59.39;102908.47;5066365;28;20060;-82
2021/09/21 02:56:36;;;;;;;0.10;0.10;;;;;;;12.86;59.34;102922.66;5069331;28;20066;-82
2021/09/21 02:59:03;;;;;;;0.00;0.00;;;;;;;12.83;58.67;102927.06;5059197;28;20033;-82
2021/09/21 03:01:29;;;;;;;0.20;0.20;;;;;;;12.81;58.98;102926.16;5072249;28;20037;-82
2021/09/21 03:04:00;;;;;;;0.10;0.10;;;;;;;12.81;59.30;102928.81;5063003;28;20498;-82
2021/09/21 03:06:31;;;;;;;0.10;0.10;;;;;;;12.80;58.97;102930.59;5064074;28;20033;-82
2021/09/21 03:09:08;;;;;;;0.10;0.10;;;;;;;12.77;59.46;102933.25;5072136;28;20027;-82
2021/09/21 03:11:41;;;;;;;0.10;0.10;;;;;;;12.76;59.25;102931.47;5045368;28;20021;-82
2021/09/21 03:19:40;;;;;;;0.10;0.10;;;;;;;12.70;58.89;102934.13;5055104;28;20112;-80
2021/09/21 03:22:06;;;;;;;0.10;0.10;;;;;;;12.69;59.25;102935.00;5057802;28;20380;-80
2021/09/21 03:24:36;;;;;;;0.10;0.10;;;;;;;12.65;59.58;102931.44;5077679;22;20033;-90
2021/09/21 03:27:02;;;;;;;0.10;0.10;;;;;;;12.66;58.56;102942.94;5058323;28;20037;-91
2021/09/21 03:29:29;;;;;;;0.00;0.00;;;;;;;12.64;59.45;102942.06;5057674;28;20040;-91
2021/09/21 03:31:55;;;;;;;0.63;0.63;;;;;;;12.62;59.41;102945.59;5056683;28;20083;-92
2021/09/21 03:34:21;;;;;;;0.35;0.32;;;;;;;12.60;59.73;102947.34;5056031;28;20029;-90
2021/09/21 03:36:48;;;;;;;0.00;0.00;;;;;;;12.58;59.53;102949.09;5055956;28;20029;-91
2021/09/21 03:39:14;;;;;;;0.30;0.30;;;;;;;12.57;58.95;102949.09;5056161;28;20088;-91
2021/09/21 03:41:40;;;;;;;0.77;0.77;;;;;;;12.56;59.45;102956.22;5055685;28;20033;-91
2021/09/21 03:44:07;;;;;;;0.10;0.10;;;;;;;12.56;59.44;102964.19;5056762;28;20028;-87
2021/09/21 03:46:33;;;;;;;0.20;0.20;;;;;;;12.55;59.98;102972.16;5055088;28;20029;-92
2021/09/21 03:48:59;;;;;;;0.00;0.00;;;;;;;12.55;59.04;102985.47;5055576;28;20029;-91
2021/09/21 03:51:25;;;;;;;0.10;0.10;;;;;;;12.55;59.39;102973.03;5055694;28;20063;-92
2021/09/21 03:53:52;;;;;;;0.10;0.10;;;;;;;12.53;59.54;102972.13;5056267;28;20028;-92
2021/09/21 03:56:18;;;;;;;0.10;0.10;;;;;;;12.51;58.99;102971.25;5055693;28;20056;-91
2021/09/21 03:58:44;;;;;;;0.00;0.00;;;;;;;12.49;59.24;102974.78;5055538;28;20075;-91
2021/09/21 04:01:10;;;;;;;0.03;0.03;;;;;;;12.45;59.25;102973.88;5056697;28;20025;-88
2021/09/21 04:03:36;;;;;;;0.00;0.00;;;;;;;12.44;59.54;102975.63;5055824;28;20029;-86
2021/09/21 04:06:03;;;;;;;0.00;0.00;;;;;;;12.42;58.88;102979.16;5055329;28;20025;-85
2021/09/21 04:08:29;;;;;;;0.10;0.10;;;;;;;12.40;59.06;102976.50;5055331;28;20067;-82
2021/09/21 04:10:55;;;;;;;0.10;0.10;;;;;;;12.39;58.96;102976.50;5055559;28;20087;-84
2021/09/21 04:13:21;;;;;;;0.10;0.10;;;;;;;12.38;59.48;102972.91;5055268;28;20033;-86
2021/09/21 04:15:47;;;;;;;0.10;0.10;;;;;;;12.37;59.40;102980.91;5055154;28;20028;-86
2021/09/21 04:18:13;;;;;;;0.10;0.10;;;;;;;12.35;60.63;102982.63;5055366;28;20040;-84
2021/09/21 04:20:40;;;;;;;0.10;0.10;;;;;;;12.36;58.72;102976.44;5053815;28;20039;-83
2021/09/21 04:23:06;;;;;;;0.10;0.10;;;;;;;12.34;60.51;102983.53;5055057;28;20036;-87
2021/09/21 04:25:32;;;;;;;0.10;0.10;;;;;;;12.33;59.88;102979.97;5054090;28;20083;-92
2021/09/21 04:27:59;;;;;;;0.10;0.10;;;;;;;12.34;59.78;102991.53;5055235;28;20484;-91
2021/09/21 04:30:28;;;;;;;0.50;0.50;;;;;;;12.36;59.96;102993.31;5053934;28;20075;-92
2021/09/21 04:32:54;;;;;;;0.10;0.10;;;;;;;12.32;60.17;102994.16;5055291;28;20489;-90
2021/09/21 04:35:21;;;;;;;0.03;0.03;;;;;;;12.33;59.32;103003.03;5054874;28;20021;-90
2021/09/21 04:37:47;;;;;;;0.10;0.10;;;;;;;12.29;58.97;102997.66;5053828;28;20029;-91
2021/09/21 04:40:14;;;;;;;0.10;0.10;;;;;;;12.30;59.52;103007.44;5054965;28;20029;-90
2021/09/21 04:42:41;;;;;;;0.10;0.10;;;;;;;12.29;59.73;103010.09;5054925;28;20024;-89
2021/09/21 04:45:08;;;;;;;0.00;0.00;;;;;;;12.27;59.91;103007.44;5055505;28;20121;-90
2021/09/21 04:47:35;;;;;;;0.20;0.20;;;;;;;12.27;60.52;103015.41;5055564;28;20028;-90
2021/09/21 04:50:01;;;;;;;0.10;0.10;;;;;;;12.26;59.93;103004.72;5055805;28;20094;-91
2021/09/21 04:52:27;;;;;;;0.10;0.10;;;;;;;12.25;59.33;103008.25;5055818;28;20021;-91
2021/09/21 04:54:53;;;;;;;0.40;0.40;;;;;;;12.24;59.65;103002.06;5054980;28;20036;-91
2021/09/21 04:57:19;;;;;;;0.00;0.00;;;;;;;12.24;59.91;103014.47;5055113;28;20033;-92
2021/09/21 04:59:45;;;;;;;0.10;0.10;;;;;;;12.25;60.06;103017.16;5054917;28;20025;-91
2021/09/21 05:02:12;;;;;;;0.30;0.30;;;;;;;12.23;60.03;103021.53;5055029;28;20056;-92
2021/09/21 05:04:38;;;;;;;0.00;0.00;;;;;;;12.24;59.70;103023.34;5055387;28;20427;-85
2021/09/21 05:07:04;;;;;;;0.10;0.10;;;;;;;12.23;59.61;103023.31;5055033;28;20539;-92
2021/09/21 05:09:30;;;;;;;0.10;0.10;;;;;;;12.21;59.55;103028.63;5054661;28;20078;-86
2021/09/21 05:11:56;;;;;;;0.10;0.10;;;;;;;12.22;59.61;103029.50;5054846;28;20036;-90
2021/09/21 05:14:22;;;;;;;0.00;0.00;;;;;;;12.21;60.29;103033.03;5054661;28;20468;-91
2021/09/21 05:16:48;;;;;;;0.10;0.10;;;;;;;12.21;59.56;103033.03;5055461;28;20032;-91
2021/09/21 05:19:15;;;;;;;0.22;0.22;;;;;;;12.20;60.14;103037.47;5055163;28;20041;-92
2021/09/21 05:21:42;;;;;;;0.47;0.47;;;;;;;12.21;59.43;103041.94;5054439;28;20025;-91
2021/09/21 05:24:11;;;;;;;0.10;0.10;;;;;;;12.22;59.69;103033.06;5054806;28;20025;-90
2021/09/21 05:26:37;;;;;;;0.10;0.10;;;;;;;12.21;60.03;103041.00;5054638;28;20400;-90
2021/09/21 05:29:05;;;;;;;0.10;0.10;;;;;;;12.20;59.96;103040.13;5055074;28;20076;-89
2021/09/21 05:31:31;;;;;;;0.10;0.10;;;;;;;12.19;60.27;103040.13;5054616;28;20060;-91
2021/09/21 05:33:57;;;;;;;0.10;0.10;;;;;;;12.19;60.25;103043.66;5054361;28;20502;-92
2021/09/21 05:36:36;;;;;;;0.10;0.10;;;;;;;12.24;60.46;103039.28;5054041;28;20033;-82
2021/09/21 05:39:05;;;;;;;0.10;0.10;;;;;;;12.22;60.14;103041.03;5053982;28;20040;-84
2021/09/21 05:41:32;;;;;;;0.00;0.00;;;;;;;12.22;59.81;103035.72;5054284;28;20036;-91
2021/09/21 05:43:58;;;;;;;0.10;0.10;;;;;;;12.26;59.81;103039.28;5054481;28;20099;-91
2021/09/21 05:46:24;;;;;;;0.00;0.00;;;;;;;12.27;60.46;103039.31;5053970;28;20021;-91
2021/09/21 05:48:52;;;;;;;0.10;0.10;;;;;;;12.30;59.89;103039.34;5053859;28;20387;-89
2021/09/21 05:51:18;;;;;;;0.10;0.10;;;;;;;12.35;60.49;103035.81;5053734;28;20086;-91
2021/09/21 05:53:44;;;;;;;0.03;0.03;;;;;;;12.40;60.02;103031.41;5054704;28;20029;-93
2021/09/21 05:56:10;;;;;;;0.10;0.10;;;;;;;12.45;59.84;103032.38;5054212;28;20033;-92
2021/09/21 05:58:36;;;;;;;0.03;0.03;;;;;;;12.49;60.44;103028.84;5054501;28;20036;-94
2021/09/21 06:01:03;;;;;;;0.00;0.00;;;;;;;12.54;60.35;103029.75;5055000;28;20051;-92
2021/09/21 06:03:30;;;;;;;0.10;0.10;;;;;;;12.60;60.36;103040.44;5054968;28;20536;-91
2021/09/21 06:05:56;;;;;;;0.10;0.10;;;;;;;12.66;61.05;103036.03;5054334;28;20040;-93
2021/09/21 06:08:22;;;;;;;0.10;0.10;;;;;;;12.71;60.25;103039.59;5073883;28;20073;-85
2021/09/21 06:10:48;;;;;;;0.08;0.08;;;;;;;12.77;60.07;103039.66;5077937;28;20044;-81
2021/09/21 06:13:15;;;;;;;0.10;0.10;;;;;;;12.83;60.44;103039.69;5078465;28;20008;-85
2021/09/21 06:15:41;;;;;;;0.10;0.10;;;;;;;12.87;60.22;103051.22;5077522;28;20032;-82
2021/09/21 06:18:07;;;;;;;0.10;0.10;;;;;;;12.90;60.73;103052.16;5072486;28;20013;-87
2021/09/21 06:20:33;;;;;;;0.08;0.08;;;;;;;12.95;60.27;103062.81;5077889;28;20080;-88
2021/09/21 06:22:59;;;;;;;0.10;0.10;;;;;;;13.00;60.13;103057.53;5076331;28;20456;-90
2021/09/21 06:25:26;;;;;;;0.10;0.10;;;;;;;13.04;59.73;103060.19;5058793;28;20064;-88
2021/09/21 06:27:52;;;;;;;0.00;0.00;;;;;;;13.09;60.01;103060.22;5057515;28;20040;-89
2021/09/21 06:30:18;;;;;;;0.98;0.98;;;;;;;13.14;59.63;103063.81;5058539;28;20040;-89
2021/09/21 06:32:44;;;;;;;0.00;0.00;;;;;;;13.19;59.97;103064.72;5057932;28;20029;-87
2021/09/21 06:35:11;;;;;;;0.00;0.00;;;;;;;13.24;60.09;103065.63;5058346;28;20036;-88
2021/09/21 06:37:37;;;;;;;0.10;0.10;;;;;;;13.30;59.47;103069.22;5058498;28;20037;-90
2021/09/21 06:40:05;;;;;;;0.10;0.10;;;;;;;13.34;59.72;103069.22;5057416;28;20045;-88
2021/09/21 06:42:33;;;;;;;0.10;0.10;;;;;;;13.41;60.07;103072.84;5057136;28;20117;-87
2021/09/21 06:45:00;;;;;;;0.03;0.03;;;;;;;13.47;60.05;103075.53;5056576;28;20098;-84
2021/09/21 06:47:27;;;;;;;0.90;0.90;;;;;;;13.55;60.02;103079.09;5056528;28;20083;-86
2021/09/21 06:49:53;;;;;;;0.10;0.10;;;;;;;13.62;59.69;103073.78;5057327;28;20021;-83
2021/09/21 06:52:19;;;;;;;0.55;0.55;;;;;;;13.71;59.60;103084.47;5057620;28;20523;-88
2021/09/21 06:54:45;;;;;;;0.10;0.10;;;;;;;13.78;60.29;103086.25;5057481;28;20065;-88
2021/09/21 06:57:14;;;;;;;0.10;0.10;;;;;;;13.87;59.21;103091.63;5057583;28;20048;-87
2021/09/21 06:59:40;;;;;;;0.10;0.10;;;;;;;13.95;59.65;103094.28;5057253;28;20460;-85
2021/09/21 07:02:06;;;;;;;0.13;0.13;;;;;;;14.04;59.59;103085.41;5057326;28;20025;-83
2021/09/21 07:04:32;;;;;;;0.10;0.10;;;;;;;14.13;59.65;103090.78;5057789;28;20124;-85
2021/09/21 07:06:58;;;;;;;0.10;0.10;;;;;;;14.21;59.06;103097.00;5057129;28;20023;-85
2021/09/21 07:09:25;;;;;;;0.10;0.10;;;;;;;14.30;58.54;103100.56;5056597;28;20109;-81
2021/09/21 07:11:51;;;;;;;0.10;0.10;;;;;;;14.38;58.60;103104.09;5056082;28;20431;-82
2021/09/21 07:14:18;;;;;;;0.20;0.20;;;;;;;14.47;58.59;103104.13;5056227;28;20055;-82
2021/09/21 07:16:44;;;;;;;0.10;0.10;;;;;;;14.57;58.36;103113.88;5056292;28;20024;-82
2021/09/21 07:19:10;;;;;;;0.10;0.10;;;;;;;14.64;57.89;103116.56;5055650;28;20025;-80
2021/09/21 07:21:37;;;;;;;0.10;0.10;;;;;;;14.74;57.41;103122.81;5056191;28;20108;-91
2021/09/21 07:24:04;;;;;;;0.00;0.00;;;;;;;14.80;57.40;103122.81;5056286;28;20104;-92
2021/09/21 07:26:30;;;;;;;0.08;0.08;;;;;;;14.87;57.17;103113.91;5055678;28;20116;-81
2021/09/21 07:28:57;;;;;;;0.10;0.10;;;;;;;14.94;57.17;103120.09;5056090;28;20037;-83
2021/09/21 07:31:23;;;;;;;0.10;0.10;;;;;;;15.00;57.22;103114.75;5055584;28;20082;-82
2021/09/21 07:33:49;;;;;;;0.10;0.10;;;;;;;15.06;56.80;103128.09;5055678;28;20452;-82
2021/09/21 07:36:15;;;;;;;0.10;0.10;;;;;;;15.12;56.90;103136.09;5054320;28;20037;-90
2021/09/21 07:38:41;;;;;;;0.10;0.10;;;;;;;15.18;56.63;103137.88;5054141;28;20361;-87
2021/09/21 07:41:08;;;;;;;0.10;0.10;;;;;;;15.26;56.54;103140.50;5055719;28;20028;-88
2021/09/21 07:43:35;;;;;;;0.30;0.22;;;;;;;15.28;56.01;103141.41;5054926;28;20102;-87
2021/09/21 07:46:01;;;;;;;0.00;0.00;;;;;;;15.36;56.03;103144.94;5055124;28;20040;-88
2021/09/21 07:48:27;;;;;;;0.10;0.10;;;;;;;15.42;55.98;103149.38;5055365;28;20025;-87
2021/09/21 07:50:56;;;;;;;0.10;0.10;;;;;;;15.45;55.37;103155.59;5054632;28;20040;-86
2021/09/21 07:53:22;;;;;;;0.10;0.10;;;;;;;15.53;55.54;103156.44;5055352;28;20037;-89
2021/09/21 07:55:50;;;;;;;0.10;0.10;;;;;;;15.60;55.63;103160.00;5055413;28;20033;-87
2021/09/21 07:58:18;;;;;;;0.20;0.20;;;;;;;15.65;53.66;103149.25;5054942;28;20040;-89
2021/09/21 08:00:45;;;;;;;0.08;0.08;;;;;;;15.76;54.61;103159.91;5054897;28;20028;-84
2021/09/21 08:03:11;;;;;;;0.10;0.10;;;;;;;15.84;54.78;103158.13;5054855;28;20025;-86
2021/09/21 08:05:37;;;;;;;0.00;0.00;;;;;;;15.89;53.81;103160.75;5054902;28;20059;-88
2021/09/21 08:08:04;;;;;;;1.45;0.85;;;;;;;16.00;54.95;103151.81;5055004;28;20040;-90
2021/09/21 08:10:30;;;;;;;3.55;1.95;;;;;;;16.11;54.39;103149.06;5055089;28;20096;-89
2021/09/21 08:12:56;;;;;;;0.10;0.10;;;;;;;16.22;53.84;103153.47;5054948;28;20104;-87
2021/09/21 08:15:24;;;;;;;0.10;0.10;;;;;;;16.27;50.70;103146.28;5055024;28;20037;-86
2021/09/21 08:17:50;;;;;;;0.17;0.17;;;;;;;16.41;52.88;103146.16;5055205;28;20025;-85
2021/09/21 08:20:16;;;;;;;0.35;0.35;;;;;;;16.53;52.63;103153.22;5054807;28;20078;-87
2021/09/21 08:22:43;;;;;;;0.20;0.20;;;;;;;16.64;52.64;103151.34;5054736;28;20153;-91
2021/09/21 08:25:12;;;;;;;0.20;0.20;;;;;;;16.72;51.55;103154.81;5054046;28;20044;-89
2021/09/21 08:27:38;;;;;;;0.10;0.10;;;;;;;16.89;51.66;103161.84;5054468;28;20364;-90
2021/09/21 08:30:05;;;;;;;1.25;0.95;;;;;;;17.00;51.20;103165.34;5053703;28;20021;-88
2021/09/21 08:32:32;;;;;;;0.10;0.10;;;;;;;17.09;48.79;103156.31;5054831;28;20379;-89
2021/09/21 08:34:59;;;;;;;0.10;0.10;;;;;;;17.21;50.22;103168.66;5054340;28;20021;-89
2021/09/21 08:37:26;;;;;;;0.10;0.10;;;;;;;17.29;49.09;103156.97;5054233;28;20036;-87
2021/09/21 08:39:56;;;;;;;0.10;0.10;;;;;;;17.43;48.16;103164.88;5054698;28;20037;-87
2021/09/21 08:42:23;;;;;;;0.10;0.10;;;;;;;17.57;49.36;103166.47;5053537;28;20025;-88
2021/09/21 08:44:49;;;;;;;0.10;0.10;;;;;;;17.63;47.98;103153.00;5052645;28;20037;-88
2021/09/21 08:47:16;;;;;;;0.10;0.10;;;;;;;17.77;48.02;103167.13;5054645;28;20400;-84
2021/09/21 08:49:42;;;;;;;0.10;0.10;;;;;;;17.87;48.09;103166.97;5054248;28;20032;-90
2021/09/21 08:52:08;;;;;;;0.20;0.20;;;;;;;17.95;48.49;103165.13;5054527;28;20047;-87
2021/09/21 08:54:34;;;;;;;0.10;0.10;;;;;;;18.02;47.89;103163.22;5054037;28;20029;-86
2021/09/21 08:57:01;;;;;;;0.20;0.20;;;;;;;18.12;48.50;103164.91;5054463;28;20035;-84
2021/09/21 08:59:30;;;;;;;0.10;0.10;;;;;;;18.22;48.14;103160.28;5054268;28;20029;-89
2021/09/21 09:02:03;;;;;;;0.20;0.20;;;;;;;18.26;47.48;103154.81;5054500;28;20036;-88
2021/09/21 09:04:30;;;;;;;0.10;0.10;;;;;;;18.29;46.38;103167.31;5054500;28;20029;-92
2021/09/21 09:06:59;;;;;;;0.10;0.10;;;;;;;18.40;45.87;103162.66;5053295;28;20060;-91
2021/09/21 09:09:29;;;;;;;0.20;0.20;;;;;;;18.49;46.48;103163.41;5054254;28;20488;-88
2021/09/21 09:12:00;;;;;;;0.25;0.25;;;;;;;18.59;46.79;103165.94;5052886;28;20040;-87
2021/09/21 09:17:13;;;;;;;0.52;0.52;;;;;;;18.76;44.89;103168.31;5112218;27;20376;-90
2021/09/21 09:19:42;;;;;;;0.10;0.10;;;;;;;18.86;47.29;103166.34;5111649;28;20110;-89
2021/09/21 09:22:15;;;;;;;0.73;0.73;;;;;;;19.00;46.94;103163.44;5112070;28;20056;-89
2021/09/21 09:25:03;;;;;;;0.10;0.10;;;;;;;19.22;46.89;103165.75;5111593;28;20416;-90
2021/09/21 09:27:47;;;;;;;0.10;0.10;;;;;;;19.29;44.62;103161.13;5111723;28;20046;-90
2021/09/21 09:30:16;;;;;;;0.10;0.10;;;;;;;19.27;42.99;103158.47;5111309;28;20036;-90
2021/09/21 09:32:47;;;;;;;0.10;0.10;;;;;;;19.26;41.48;103162.06;5110455;28;20036;-91
2021/09/21 09:35:31;;;;;;;0.10;0.10;;;;;;;19.28;38.71;103165.63;5111576;28;20101;-89
2021/09/21 09:38:01;;;;;;;0.10;0.10;;;;;;;19.32;41.33;103159.25;5111060;28;20027;-91
2021/09/21 09:40:30;;;;;;;0.10;0.10;;;;;;;19.40;42.83;103160.00;5111920;28;20328;-91
2021/09/21 09:42:56;;;;;;;0.10;0.10;;;;;;;19.45;42.58;103157.22;5110732;28;20028;-91
2021/09/21 09:45:37;;;;;;;0.10;0.10;;;;;;;19.57;42.79;103156.06;5110495;28;20116;-92
2021/09/21 09:48:05;;;;;;;0.15;0.15;;;;;;;19.61;41.88;103157.78;5111109;28;20032;-91
2021/09/21 09:50:38;;;;;;;0.90;0.85;;;;;;;19.71;42.99;103162.06;5110903;28;20031;-91
2021/09/21 09:53:08;;;;;;;0.13;0.13;;;;;;;19.72;41.74;103155.72;5109300;28;20055;-87
2021/09/21 09:55:35;;;;;;;0.10;0.10;;;;;;;19.77;42.75;103158.34;5110572;28;20028;-91
2021/09/21 09:58:02;;;;;;;0.10;0.10;;;;;;;19.86;42.69;103157.28;5111009;28;20024;-89
2021/09/21 10:00:29;;;;;;;0.10;0.10;;;;;;;19.91;39.75;103154.50;5111510;28;20361;-91
2021/09/21 10:02:55;;;;;;;0.10;0.10;;;;;;;20.01;41.94;103156.94;5111053;28;20116;-90
2021/09/21 10:05:22;;;;;;;0.10;0.10;;;;;;;20.08;41.33;103152.28;5110182;28;20024;-91
2021/09/21 10:07:48;;;;;;;0.10;0.10;;;;;;;20.16;40.80;103158.38;5110201;28;20032;-91
2021/09/21 10:10:15;;;;;;;0.55;0.55;;;;;;;20.28;40.37;103156.31;5110591;28;20024;-88
2021/09/21 10:12:42;;;;;;;0.10;0.10;;;;;;;20.33;40.63;103155.28;5110644;28;20099;-89
2021/09/21 10:15:10;;;;;;;0.10;0.10;;;;;;;20.42;40.91;103155.97;5110084;28;20047;-85
2021/09/21 10:17:47;;;;;;;0.10;0.10;;;;;;;20.47;39.43;103159.44;5110411;28;20094;-84
2021/09/21 10:20:14;;;;;;;0.10;0.10;;;;;;;20.53;40.70;103154.78;5110595;28;20110;-84
2021/09/21 10:22:40;;;;;;;0.22;0.22;;;;;;;20.62;40.89;103148.28;5110558;28;20421;-86
2021/09/21 10:25:08;;;;;;;0.10;0.10;;;;;;;20.74;40.70;103151.63;5110097;28;20028;-94
2021/09/21 10:27:36;;;;;;;0.20;0.20;;;;;;;20.83;40.33;103156.75;5102539;28;20539;-93
2021/09/21 10:30:11;;;;;;;0.10;0.10;;;;;;;20.97;39.19;103148.28;5097186;28;20032;-93
2021/09/21 10:32:47;;;;;;;0.10;0.10;;;;;;;21.05;37.08;103150.78;5096246;28;20039;-91
2021/09/21 10:35:17;;;;;;;0.10;0.10;;;;;;;21.14;38.93;103147.84;5096620;28;20024;-92
2021/09/21 10:37:43;;;;;;;0.43;0.43;;;;;;;21.20;37.60;103147.66;5098005;28;20024;-91
2021/09/21 10:40:10;;;;;;;0.20;0.20;;;;;;;21.28;38.43;103148.34;5096960;28;20024;-89
2021/09/21 10:42:49;;;;;;;0.10;0.10;;;;;;;21.34;38.64;103145.44;5097257;28;20112;-90
2021/09/21 10:45:25;;;;;;;0.55;0.55;;;;;;;21.45;38.50;103146.97;5102314;28;20060;-90
2021/09/21 10:48:01;;;;;;;0.10;0.10;;;;;;;21.49;38.28;103140.53;5100663;28;20526;-93
2021/09/21 10:50:27;;;;;;;0.10;0.10;;;;;;;21.50;37.90;103140.50;5103824;28;20020;-83
2021/09/21 10:53:07;;;;;;;0.22;0.22;;;;;;;21.72;37.91;103147.09;5102271;28;20036;-91
2021/09/21 10:55:36;;;;;;;0.10;0.10;;;;;;;21.70;35.42;103143.56;5097826;28;20031;-86
2021/09/21 10:58:04;;;;;;;0.10;0.10;;;;;;;21.81;37.41;103149.50;5102253;28;20020;-92
2021/09/21 11:00:34;;;;;;;0.10;0.10;;;;;;;21.87;36.26;103148.41;5098274;28;20035;-91
2021/09/21 11:03:05;;;;;;;0.10;0.10;;;;;;;22.00;36.91;103151.66;5100529;28;20024;-91
2021/09/21 11:05:31;;;;;;;0.10;0.10;;;;;;;22.11;36.89;103161.16;5099254;28;20028;-94
2021/09/21 11:08:01;;;;;;;0.10;0.10;;;;;;;22.19;35.70;103147.41;5101259;28;20115;-96
2021/09/21 11:10:32;;;;;;;0.10;0.10;;;;;;;22.24;36.05;103144.56;5096174;28;20064;-90
2021/09/21 11:12:58;;;;;;;0.10;0.10;;;;;;;22.21;34.79;103150.94;5096658;28;20510;-82
2021/09/21 11:15:27;;;;;;;0.10;0.10;;;;;;;22.32;36.20;103144.28;5087587;28;20051;-81
2021/09/21 11:18:19;;;;;;;0.10;0.10;;;;;;;22.48;35.75;103145.59;5086879;28;20025;-83
2021/09/21 11:23:30;;;;;;;0.10;0.10;;;;;;;22.56;36.18;103143.50;5076979;27;20460;-90
2021/09/21 11:26:00;;;;;;;0.10;0.10;;;;;;;22.55;34.99;103144.44;5058063;28;20033;-84
2021/09/21 11:28:28;;;;;;;0.08;0.08;;;;;;;22.60;34.96;103139.78;5049458;28;20041;-83
2021/09/21 11:30:57;;;;;;;0.10;0.10;;;;;;;22.70;35.02;103147.56;5047061;28;20743;-88
2021/09/21 11:33:26;;;;;;;0.10;0.10;;;;;;;22.72;34.83;103148.41;5050681;28;20021;-90
2021/09/21 11:35:56;;;;;;;0.10;0.10;;;;;;;22.71;34.30;103143.91;5050204;28;20037;-87
2021/09/21 11:38:35;;;;;;;0.10;0.10;;;;;;;22.71;34.96;103143.91;5054855;28;20467;-84
2021/09/21 11:41:12;;;;;;;0.10;0.10;;;;;;;22.72;33.67;103140.28;5049802;28;20021;-88
2021/09/21 11:43:39;;;;;;;0.20;0.20;;;;;;;22.78;34.86;103131.97;5050129;28;20057;-81